createdAt,value
2019-04-05T00:04:10.950Z,-0.1
2019-04-05T00:09:41.679Z,-0.2
2019-04-05T00:15:15.421Z,0
2019-04-05T00:20:43.182Z,-0.1
2019-04-05T00:26:14.310Z,-0.1
2019-04-05T00:31:45.957Z,-0.2
2019-04-05T00:37:19.254Z,-0.2
2019-04-05T00:42:49.269Z,-0.2
2019-04-05T00:48:20.833Z,-0.1
2019-04-05T00:53:52.429Z,-0.1
2019-04-05T00:59:24.041Z,-0.2
2019-04-05T01:04:55.671Z,-0.2
2019-04-05T01:10:27.353Z,-0.1
2019-04-05T01:15:58.955Z,-0.2
2019-04-05T01:21:30.610Z,-0.2
2019-04-05T01:27:02.225Z,-0.2
2019-04-05T01:32:33.817Z,-0.2
2019-04-05T01:38:05.411Z,-0.2
2019-04-05T01:43:36.981Z,-0.2
2019-04-05T01:49:08.584Z,-0.2
2019-04-05T01:54:40.178Z,-0.2
2019-04-05T02:00:11.874Z,-0.3
2019-04-05T02:05:43.268Z,-0.2
2019-04-05T02:11:14.802Z,-0.2
2019-04-05T02:16:45.778Z,-0.2
2019-04-05T02:22:16.499Z,-0.3
2019-04-05T02:27:47.281Z,-0.2
2019-04-05T02:33:18.026Z,-0.1
2019-04-05T02:38:48.704Z,-0.2
2019-04-05T02:44:19.521Z,-0.2
2019-04-05T02:49:50.207Z,-0.2
2019-04-05T02:55:21.002Z,-0.2
2019-04-05T03:00:51.695Z,-0.1
2019-04-05T03:06:22.409Z,-0.2
2019-04-05T03:11:53.234Z,-0.1
2019-04-05T03:17:24.725Z,-0.3
2019-04-05T03:22:56.238Z,-0.4
2019-04-05T03:28:26.949Z,-0.3
2019-04-05T03:33:58.247Z,-0.3
2019-04-05T03:39:29.621Z,-0.4
2019-04-05T03:45:00.342Z,-0.3
2019-04-05T03:50:31.055Z,-0.3
2019-04-05T03:56:02.029Z,-0.3
2019-04-05T04:01:32.862Z,-0.4
2019-04-05T04:07:03.935Z,-0.4
2019-04-05T04:12:34.691Z,-0.3
2019-04-05T04:18:05.392Z,-0.5
2019-04-05T04:23:36.044Z,-0.4
2019-04-05T04:29:06.801Z,-0.5
2019-04-05T04:34:37.607Z,-0.4
2019-04-05T04:40:08.293Z,-0.4
2019-04-05T04:45:39.067Z,-0.4
2019-04-05T04:51:09.765Z,-0.3
2019-04-05T04:56:40.510Z,-0.3
2019-04-05T05:02:11.312Z,-0.4
2019-04-05T05:07:42.011Z,-0.5
2019-04-05T05:13:12.731Z,-0.5
2019-04-05T05:18:45.171Z,-0.3
2019-04-05T05:24:14.272Z,-0.5
2019-04-05T05:29:44.856Z,-0.7
2019-04-05T05:35:15.650Z,-0.6
2019-04-05T05:40:46.314Z,-0.5
2019-04-05T05:46:17.048Z,-0.5
2019-04-05T05:51:47.734Z,-0.5
2019-04-05T05:57:18.521Z,-0.3
2019-04-05T06:02:49.228Z,-0.3
2019-04-05T06:08:19.941Z,-0.3
2019-04-05T06:13:50.773Z,-0.2
2019-04-05T06:19:21.489Z,-0.3
2019-04-05T06:24:52.253Z,-0.3
2019-04-05T06:30:23.279Z,-0.2
2019-04-05T06:35:54.834Z,0
2019-04-05T06:41:26.011Z,0
2019-04-05T06:46:57.630Z,0
2019-04-05T06:52:29.147Z,0
2019-04-05T06:58:00.981Z,0
2019-04-05T07:03:32.048Z,0
2019-04-05T07:09:03.691Z,0
2019-04-05T07:14:35.167Z,0.1
2019-04-05T07:20:06.583Z,0.1
2019-04-05T07:25:38.128Z,0.3
2019-04-05T07:31:09.878Z,0.4
2019-04-05T07:36:41.628Z,0.3
2019-04-05T07:42:13.537Z,0.5
2019-04-05T07:47:45.303Z,0.8
2019-04-05T07:53:17.208Z,0.9
2019-04-05T07:58:49.095Z,1
2019-04-05T08:04:21.015Z,1.2
2019-04-05T08:09:52.896Z,1.3
2019-04-05T08:15:24.898Z,1
2019-04-05T08:20:56.890Z,0.9
2019-04-05T08:26:28.886Z,1.2
2019-04-05T08:32:13.560Z,1.1
2019-04-05T08:37:32.151Z,1.6
2019-04-05T08:43:03.846Z,1.6
2019-04-05T08:48:35.688Z,1.9
2019-04-05T08:54:06.930Z,1.6
2019-04-05T08:59:32.269Z,1.7
2019-04-05T09:05:04.371Z,1.8
2019-04-05T09:10:36.597Z,1.7
2019-04-05T09:16:11.556Z,2
2019-04-05T09:21:41.162Z,2.5
2019-04-05T09:27:12.823Z,2.2
2019-04-05T09:32:44.376Z,2.2
2019-04-05T09:38:16.172Z,2.3
2019-04-05T09:43:48.400Z,2.9
2019-04-05T09:49:20.418Z,2.7
2019-04-05T09:54:52.664Z,3
2019-04-05T10:00:24.966Z,3.1
2019-04-05T10:05:56.877Z,3.5
2019-04-05T10:11:29.003Z,3.8
2019-04-05T10:17:01.428Z,4.1
2019-04-05T10:22:38.222Z,3.6
2019-04-05T10:28:10.324Z,3.4
2019-04-05T10:33:42.570Z,3.8
2019-04-05T10:39:14.568Z,4.2
2019-04-05T10:44:47.006Z,3.8
2019-04-05T10:50:18.807Z,4.5
2019-04-05T10:55:51.084Z,4.7
2019-04-05T11:01:23.590Z,4.5
2019-04-05T11:06:56.192Z,4.3
2019-04-05T11:12:28.739Z,4.7
2019-04-05T11:18:04.395Z,5.3
2019-04-05T11:23:34.470Z,4.7
2019-04-05T11:29:07.205Z,5.1
2019-04-05T11:34:39.971Z,5.3
2019-04-05T11:40:12.869Z,5.8
2019-04-05T11:45:45.977Z,5.1
2019-04-05T11:51:19.234Z,6.1
2019-04-05T11:56:52.590Z,6.2
2019-04-05T12:02:25.986Z,6.4
2019-04-05T12:08:01.677Z,6.3
2019-04-05T12:13:32.651Z,6.3
2019-04-05T12:19:06.209Z,6
2019-04-05T12:24:39.634Z,6.9
2019-04-05T12:30:13.384Z,7
2019-04-05T12:35:47.219Z,7.4
2019-04-05T12:41:20.671Z,6.2
2019-04-05T12:46:53.799Z,6.3
2019-04-05T12:52:27.509Z,6.3
2019-04-05T12:57:59.937Z,6.5
2019-04-05T13:03:32.752Z,6.2
2019-04-05T13:09:06.926Z,6.4
2019-04-05T13:14:38.207Z,6.3
2019-04-05T13:20:10.828Z,6.5
2019-04-05T13:25:43.466Z,6.6
2019-04-05T13:31:18.130Z,6.8
2019-04-05T13:36:48.813Z,6.8
2019-04-05T13:42:21.485Z,7.3
2019-04-05T13:47:53.958Z,7.5
2019-04-05T13:53:26.511Z,7.5
2019-04-05T13:58:59.209Z,7.4
2019-04-05T14:04:32.065Z,9.1
2019-04-05T14:10:05.672Z,9.7
2019-04-05T14:15:41.765Z,8.7
2019-04-05T14:21:13.377Z,8.8
2019-04-05T14:26:46.782Z,8.1
2019-04-05T14:32:21.597Z,9.8
2019-04-05T14:37:55.064Z,11
2019-04-05T14:43:27.718Z,10
2019-04-05T14:49:02.270Z,9.8
2019-04-05T14:54:36.929Z,10.4
2019-04-05T15:00:14.547Z,10.4
2019-04-05T15:05:46.799Z,9.3
2019-04-05T15:11:21.368Z,8
2019-04-05T15:16:55.527Z,8.7
2019-04-05T15:22:29.567Z,9.2
2019-04-05T15:28:04.119Z,7.8
2019-04-05T15:33:37.359Z,8.5
2019-04-05T15:39:10.871Z,8
2019-04-05T15:44:43.985Z,9.1
2019-04-05T15:50:17.342Z,8.6
2019-04-05T15:55:50.505Z,8.1
2019-04-05T16:01:23.609Z,7.8
2019-04-05T16:06:56.660Z,7.7
2019-04-05T16:12:29.468Z,7.7
2019-04-05T16:18:02.310Z,7.9
2019-04-05T16:23:34.936Z,7.7
2019-04-05T16:29:07.673Z,7.5
2019-04-05T16:34:39.880Z,7.7
2019-04-05T16:40:12.518Z,7.6
2019-04-05T16:45:44.812Z,7.2
2019-04-05T16:51:17.511Z,7.1
2019-04-05T16:56:50.067Z,7.1
2019-04-05T17:02:22.207Z,7
2019-04-05T17:07:53.950Z,7
2019-04-05T17:13:25.641Z,6.9
2019-04-05T17:18:57.297Z,6.7
2019-04-05T17:24:28.967Z,6.5
2019-04-05T17:30:02.059Z,6.6
2019-04-05T17:35:32.507Z,6.6
2019-04-05T17:41:04.197Z,6.3
2019-04-05T17:46:35.845Z,6
2019-04-05T17:52:08.203Z,5.8
2019-04-05T17:57:38.781Z,5.7
2019-04-05T18:03:10.181Z,5.6
2019-04-05T18:08:41.585Z,5.6
2019-04-05T18:14:13.841Z,5.3
2019-04-05T18:19:44.108Z,4.9
2019-04-05T18:25:15.332Z,4.6
2019-04-05T18:30:46.557Z,4.1
2019-04-05T18:36:17.753Z,3.9
2019-04-05T18:41:48.869Z,4.3
2019-04-05T18:47:19.971Z,4.3
2019-04-05T18:52:51.061Z,4.3
2019-04-05T18:58:22.315Z,4.4
2019-04-05T19:03:53.195Z,4.6
2019-04-05T19:09:24.401Z,4.6
2019-04-05T19:14:57.642Z,4.4
2019-04-05T19:20:26.621Z,4.2
2019-04-05T19:25:57.740Z,4.2
2019-04-05T19:53:33.048Z,3.5
2019-04-05T19:59:04.017Z,3.4
2019-04-05T20:04:35.097Z,3.3
2019-04-05T20:10:06.035Z,3.5
2019-04-05T20:15:37.066Z,3.3
2019-04-05T20:21:07.949Z,3.5
2019-04-05T20:26:38.946Z,2.6
2019-04-05T20:32:09.976Z,2.2
2019-04-05T20:37:40.916Z,2.8
2019-04-05T20:43:11.800Z,3
2019-04-05T20:48:42.683Z,3.4
2019-04-05T20:54:20.015Z,3.6
2019-04-05T20:59:44.529Z,3.5
2019-04-05T21:05:24.634Z,2.9
2019-04-05T21:10:46.421Z,2.6
2019-04-05T21:16:17.343Z,2.5
2019-04-05T21:21:48.284Z,3
2019-04-05T21:27:19.278Z,3.2
2019-04-05T21:32:50.154Z,2.8
2019-04-05T21:38:21.195Z,2.6
2019-04-05T21:43:52.117Z,1.9
2019-04-05T21:49:22.984Z,2.1
2019-04-05T21:54:53.983Z,2.1
2019-04-05T22:00:24.899Z,2
2019-04-05T22:05:55.826Z,1.9
2019-04-05T22:11:27.824Z,1.6
2019-04-05T22:16:57.627Z,1.7
2019-04-05T22:22:28.455Z,2.7
2019-04-05T22:27:59.351Z,2.5
2019-04-05T22:33:30.256Z,2.3
2019-04-05T22:39:01.144Z,2.2
2019-04-05T22:44:38.028Z,1
2019-04-05T22:50:02.937Z,1
2019-04-05T22:55:33.742Z,1.1
2019-04-05T23:01:04.661Z,1.1
2019-04-05T23:06:35.477Z,1.3
2019-04-05T23:12:07.013Z,1.3
2019-04-05T23:17:37.088Z,1.4
2019-04-05T23:23:07.978Z,1.5
2019-04-05T23:28:38.798Z,1.4
2019-04-05T23:34:09.614Z,1.6
2019-04-05T23:39:41.291Z,1.1
2019-04-05T23:45:11.310Z,1.2
2019-04-05T23:50:42.123Z,1.6
2019-04-05T23:56:12.880Z,1
